Huvudsida
METAR-TAF:

METAR-TAF

Flygplatser :

Szolnok flygplats

Szolnok, Ungern

latitud: 47-07N, longitud: 020-14E, höjd: 89 m

Aktuellt väderrapport

Denna rapport gjordes för 38 minuter sedan, klockan 14:15 UTC
Vind 6 kt från sydväst, varierande mellan syd och väst
Temperatur 33°C
Fuktighet 44%
Tryck 1022 hPa
Sikt 10 km eller mer
Inga moln under 1 500 m eller inga cumulonimbus

METAR: LHSN 261415Z 23006KT 170V270 CAVOK 33/19 Q1022 NOSIG RMK BLU

Tid: 16:53 (14:53 UTC)

Väderprognos

Denna rapport gjordes för 38 minuter sedan, klockan 14:15 UTC
Prognos gäller från 26 kl. 15 UTC till 26 kl. 24 UTC
Vind 6 kt från väst/sydväst
Sikt 10 km eller mer
Inga moln under 1 500 m eller inga cumulonimbus
Temporärt
från 26 kl. 15 UTC till 26 kl. 21 UTC
Vind 3 kt varierande vindriktning

TAF: LHSN 261415Z 2615/2624 25006KT CAVOK TEMPO 2615/2621 VRB03KT

Aktuella väderrapporter och prognoser från 4000 flygplatser (METAR- och TAF-rapporter).

De tillgängliga stationerna syns som gula och röda prickar på kartan.

För musen över prickarna för att se namnen på stationerna.

Klicka sedan för att få väderrapporter och prognoser.

För att ändra kartan: Klicka på de gröna knapparna med ett svart kors på för att zooma in; den gröna knappen med ett streck på för att zooma ut; eller på de gröna pilarna för angränsande kartor.


METAR-TAF: